createdAt,value
2022-11-01T00:00:02.665Z,95897.34
2022-11-01T00:02:15.370Z,95774.50
2022-11-01T00:04:18.574Z,95884.06
2022-11-01T00:06:21.405Z,95897.06
2022-11-01T00:08:24.156Z,95895.44
2022-11-01T00:10:26.893Z,95413.69
2022-11-01T00:12:31.835Z,95415.69
2022-11-01T00:14:34.592Z,94774.44
2022-11-01T00:16:38.667Z,95882.22
2022-11-01T00:18:41.909Z,95686.84
2022-11-01T00:20:45.019Z,95881.41
2022-11-01T00:22:47.700Z,95689.22
2022-11-01T00:24:52.138Z,94856.44
2022-11-01T00:26:56.773Z,95906.22
2022-11-01T00:28:59.530Z,95889.78
2022-11-01T00:31:02.500Z,94445.72
2022-11-01T00:33:07.388Z,95891.13
2022-11-01T00:35:10.544Z,95892.19
2022-11-01T00:37:13.230Z,95907.59
2022-11-01T00:39:16.762Z,95755.91
2022-11-01T00:41:20.670Z,95471.13
2022-11-01T00:43:23.927Z,95897.06
2022-11-01T00:45:26.635Z,95898.69
2022-11-01T00:47:29.362Z,95778.69
2022-11-01T00:49:33.375Z,95901.38
2022-11-01T00:51:36.048Z,95905.69
2022-11-01T00:53:38.941Z,95900.56
2022-11-01T00:55:41.960Z,95543.00
2022-11-01T00:57:45.658Z,95903.69
2022-11-01T00:59:48.403Z,95895.88
2022-11-01T01:01:51.390Z,95896.41
2022-11-01T01:03:54.225Z,95117.09
2022-11-01T01:05:59.193Z,95887.28
2022-11-01T01:08:02.269Z,95893.78
2022-11-01T01:10:05.968Z,95698.91
2022-11-01T01:12:09.294Z,95891.63
2022-11-01T01:14:12.424Z,95894.91
2022-11-01T01:16:15.119Z,95749.91
2022-11-01T01:18:17.844Z,95213.13
2022-11-01T01:20:21.024Z,95886.81
2022-11-01T01:22:25.134Z,95804.16
2022-11-01T01:24:28.009Z,95882.50
2022-11-01T01:26:30.725Z,95388.47
2022-11-01T01:28:33.411Z,95826.31
2022-11-01T01:30:36.108Z,95324.72
2022-11-01T01:32:39.001Z,95879.25
2022-11-01T01:34:41.732Z,95868.97
2022-11-01T01:36:44.859Z,95872.75
2022-11-01T01:38:48.948Z,95694.69
2022-11-01T01:40:51.632Z,95875.47
2022-11-01T01:42:54.296Z,95874.91
2022-11-01T01:45:22.970Z,95878.69
2022-11-01T01:47:28.552Z,95873.56
2022-11-01T01:49:31.312Z,95875.97
2022-11-01T01:51:34.266Z,95880.59
2022-11-01T01:53:41.767Z,95876.00
2022-11-01T01:55:50.222Z,95870.03
2022-11-01T01:57:54.335Z,95866.81
2022-11-01T01:59:57.083Z,95879.50
2022-11-01T02:02:00.333Z,95737.81
2022-11-01T02:04:04.584Z,95849.56
2022-11-01T02:06:11.177Z,95760.47
2022-11-01T02:08:16.195Z,95861.97
2022-11-01T02:10:19.527Z,95862.50
2022-11-01T02:12:27.267Z,95864.13
2022-11-01T02:14:30.890Z,95855.50
2022-11-01T02:16:45.097Z,95714.91
2022-11-01T02:18:54.138Z,95870.56
2022-11-01T02:21:25.509Z,95862.16
2022-11-01T02:24:08.186Z,95725.41
2022-11-01T02:26:35.247Z,95328.97
2022-11-01T02:28:55.377Z,95551.56
2022-11-01T02:31:11.882Z,95884.00
2022-11-01T02:33:27.446Z,95915.69
2022-11-01T02:35:41.361Z,95893.69
2022-11-01T02:37:52.272Z,95458.53
2022-11-01T02:40:01.953Z,95776.06
2022-11-01T02:42:11.668Z,95910.94
2022-11-01T02:44:20.044Z,95886.31
2022-11-01T02:46:41.758Z,95881.72
2022-11-01T02:48:47.100Z,95885.22
2022-11-01T02:50:54.211Z,95886.00
2022-11-01T02:52:57.217Z,95742.41
2022-11-01T02:55:01.828Z,95889.78
2022-11-01T02:57:11.172Z,95888.69
2022-11-01T02:59:24.791Z,95889.50
2022-11-01T03:01:29.852Z,95935.47
2022-11-01T03:03:36.342Z,95900.59
2022-11-01T03:05:50.999Z,95908.69
2022-11-01T03:07:58.162Z,95905.72
2022-11-01T03:10:01.775Z,95896.25
2022-11-01T03:12:07.784Z,95909.25
2022-11-01T03:14:24.953Z,95908.75
2022-11-01T03:16:32.314Z,95945.63
2022-11-01T03:18:37.551Z,95857.31
2022-11-01T03:20:49.497Z,95810.63
2022-11-01T03:22:56.431Z,95924.72
2022-11-01T03:25:27.437Z,95917.69
2022-11-01T03:27:37.428Z,95923.09
2022-11-01T03:29:43.181Z,95884.03
2022-11-01T03:31:47.569Z,95924.19
2022-11-01T03:33:54.096Z,95926.63
2022-11-01T03:36:04.250Z,95925.53
2022-11-01T03:38:14.797Z,95918.78
2022-11-01T03:40:19.817Z,95919.66
2022-11-01T03:42:24.958Z,95941.50
2022-11-01T03:44:31.723Z,95939.59
2022-11-01T03:46:34.616Z,95938.53
2022-11-01T03:48:39.941Z,95943.38
2022-11-01T03:50:48.868Z,95946.63
2022-11-01T03:52:53.254Z,95942.28
2022-11-01T03:54:56.562Z,95634.84
2022-11-01T03:56:59.237Z,95939.03
2022-11-01T03:59:01.999Z,95938.47
2022-11-01T04:01:04.720Z,95951.47
2022-11-01T04:03:08.450Z,95955.78
2022-11-01T04:05:11.486Z,95961.75
2022-11-01T04:07:14.146Z,95963.91
2022-11-01T04:09:18.132Z,96035.03
2022-11-01T04:11:20.921Z,95960.44
2022-11-01T04:13:23.627Z,95707.34
2022-11-01T04:15:45.285Z,95966.63
2022-11-01T04:18:05.709Z,95966.03
2022-11-01T04:20:28.509Z,95981.69
2022-11-01T04:22:31.147Z,95970.13
2022-11-01T04:24:35.413Z,95973.06
2022-11-01T04:26:38.104Z,95975.75
2022-11-01T04:28:40.946Z,95971.97
2022-11-01T04:30:44.109Z,95873.25
2022-11-01T04:32:46.732Z,96000.31
2022-11-01T04:34:49.671Z,95988.69
2022-11-01T04:36:52.410Z,95498.28
2022-11-01T04:38:57.458Z,95990.31
2022-11-01T04:41:01.454Z,95981.28
2022-11-01T04:43:04.552Z,96000.19
2022-11-01T04:45:09.652Z,96002.63
2022-11-01T04:47:12.404Z,95994.34
2022-11-01T04:49:15.183Z,96018.88
2022-11-01T04:51:18.162Z,95997.78
2022-11-01T04:53:20.843Z,96022.13
2022-11-01T04:55:23.705Z,95764.25
2022-11-01T04:57:27.755Z,96018.81
2022-11-01T04:59:30.553Z,95840.28
2022-11-01T05:01:33.294Z,96022.69
2022-11-01T05:03:36.569Z,96020.06
2022-11-01T05:05:39.513Z,95746.19
2022-11-01T05:07:42.236Z,96029.56
2022-11-01T05:09:45.112Z,96092.59
2022-11-01T05:11:47.826Z,96037.41
2022-11-01T05:13:52.251Z,96022.25
2022-11-01T05:16:17.936Z,96027.19
2022-11-01T05:18:17.691Z,96046.63
2022-11-01T05:20:20.808Z,95608.72
2022-11-01T05:22:23.502Z,96058.47
2022-11-01T05:24:26.220Z,95979.63
2022-11-01T05:26:28.945Z,96069.00
2022-11-01T05:28:31.587Z,96068.19
2022-11-01T05:30:36.933Z,96056.59
2022-11-01T05:32:39.583Z,96078.56
2022-11-01T05:34:42.331Z,96011.00
2022-11-01T05:36:45.103Z,95923.53
2022-11-01T05:38:47.833Z,96059.38
2022-11-01T05:40:50.981Z,96048.03
2022-11-01T05:42:54.115Z,96046.13
2022-11-01T05:44:57.006Z,96077.47
2022-11-01T05:47:03.620Z,96066.13
2022-11-01T05:49:06.348Z,96055.88
2022-11-01T05:51:09.943Z,95996.41
2022-11-01T05:53:13.109Z,95674.03
2022-11-01T05:55:15.804Z,95924.06
2022-11-01T05:57:18.620Z,96017.22
2022-11-01T05:59:21.505Z,96009.41
2022-11-01T06:01:24.222Z,95997.50
2022-11-01T06:03:28.543Z,95988.59
2022-11-01T06:05:31.738Z,96021.28
2022-11-01T06:07:36.631Z,95769.34
2022-11-01T06:09:39.347Z,96044.78
2022-11-01T06:11:42.110Z,96052.34
2022-11-01T06:13:44.798Z,96051.00
2022-11-01T06:15:47.462Z,96057.50
2022-11-01T06:17:55.596Z,96059.13
2022-11-01T06:19:59.708Z,95999.41
2022-11-01T06:22:02.473Z,96073.72
2022-11-01T06:24:05.604Z,96087.75
2022-11-01T06:26:08.340Z,96007.78
2022-11-01T06:28:11.109Z,95785.50
2022-11-01T06:30:13.950Z,96082.88
2022-11-01T06:32:16.659Z,96107.22
2022-11-01T06:34:19.365Z,96099.91
2022-11-01T06:36:23.737Z,96101.81
2022-11-01T06:38:26.598Z,96109.09
2022-11-01T06:40:29.461Z,96108.28
2022-11-01T06:42:32.146Z,96098.84
2022-11-01T06:44:34.864Z,96100.19
2022-11-01T06:46:37.805Z,96104.25
2022-11-01T06:48:40.730Z,96113.69
2022-11-01T06:50:43.412Z,95890.69
2022-11-01T06:52:47.550Z,96095.31
2022-11-01T06:54:50.284Z,96101.00
2022-11-01T06:56:53.038Z,96098.28
2022-11-01T06:58:55.905Z,96103.16
2022-11-01T07:00:58.742Z,96004.72
2022-11-01T07:03:04.518Z,96109.91
2022-11-01T07:05:08.581Z,96111.53
2022-11-01T07:07:11.237Z,96108.28
2022-11-01T07:09:15.445Z,96100.19
2022-11-01T07:11:18.272Z,96110.47
2022-11-01T07:13:21.061Z,96111.00
2022-11-01T07:15:23.799Z,96109.69
2022-11-01T07:17:27.512Z,96126.72
2022-11-01T07:19:30.231Z,96125.31
2022-11-01T07:21:33.454Z,96131.00
2022-11-01T07:23:36.404Z,95938.06
2022-11-01T07:25:40.748Z,96138.56
2022-11-01T07:27:43.608Z,96124.25
2022-11-01T07:29:46.267Z,95874.81
2022-11-01T07:31:50.126Z,95861.53
2022-11-01T07:33:53.120Z,96131.53
2022-11-01T07:35:55.867Z,96133.44
2022-11-01T07:37:59.578Z,96142.09
2022-11-01T07:40:03.241Z,96159.16
2022-11-01T07:42:07.277Z,96133.09
2022-11-01T07:44:10.071Z,96144.44
2022-11-01T07:46:13.799Z,96151.13
2022-11-01T07:48:17.825Z,96149.88
2022-11-01T07:50:20.949Z,96164.91
2022-11-01T07:52:23.722Z,96164.28
2022-11-01T07:54:26.446Z,96178.81
2022-11-01T07:56:29.143Z,96168.50
2022-11-01T07:58:34.373Z,96175.03
2022-11-01T08:00:37.872Z,95822.31
2022-11-01T08:02:40.761Z,95752.66
2022-11-01T08:04:43.836Z,96167.69
2022-11-01T08:06:49.684Z,96171.47
2022-11-01T08:08:54.782Z,96174.94
2022-11-01T08:11:00.014Z,96183.47
2022-11-01T08:13:05.227Z,96079.66
2022-11-01T08:15:10.948Z,96176.44
2022-11-01T08:17:13.756Z,96076.97
2022-11-01T08:19:16.784Z,96187.75
2022-11-01T08:21:19.665Z,96192.09
2022-11-01T08:23:22.889Z,96188.28
2022-11-01T08:25:26.193Z,96191.81
2022-11-01T08:27:31.509Z,96196.41
2022-11-01T08:29:37.294Z,96188.28
2022-11-01T08:31:42.931Z,96201.88
2022-11-01T08:33:45.733Z,96236.50
2022-11-01T08:35:50.694Z,96191.81
2022-11-01T08:37:54.624Z,96193.19
2022-11-01T08:39:57.308Z,96185.25
2022-11-01T08:42:00.741Z,96197.72
2022-11-01T08:44:03.543Z,96192.13
2022-11-01T08:46:06.426Z,96202.13
2022-11-01T08:48:11.413Z,95879.75
2022-11-01T08:50:16.141Z,96028.84
2022-11-01T08:52:18.916Z,96197.53
2022-11-01T08:54:21.792Z,96208.09
2022-11-01T08:56:26.794Z,96200.78
2022-11-01T08:58:29.581Z,96202.41
2022-11-01T09:00:32.526Z,96197.00
2022-11-01T09:02:35.850Z,96195.91
2022-11-01T09:04:40.061Z,96208.09
2022-11-01T09:06:42.854Z,96212.41
2022-11-01T09:08:45.932Z,96196.63
2022-11-01T09:10:48.678Z,96203.34
2022-11-01T09:12:51.397Z,96246.72
2022-11-01T09:14:54.124Z,96208.25
2022-11-01T09:16:57.013Z,96022.34
2022-11-01T09:19:01.740Z,96200.13
2022-11-01T09:21:07.180Z,96219.09
2022-11-01T09:23:10.284Z,96218.00
2022-11-01T09:25:13.589Z,96221.78
2022-11-01T09:27:16.531Z,96214.25
2022-11-01T09:29:21.190Z,96207.16
2022-11-01T09:31:24.385Z,96217.38
2022-11-01T09:33:27.116Z,96222.06
2022-11-01T09:35:29.905Z,96207.53
2022-11-01T09:37:34.226Z,96074.66
2022-11-01T09:39:36.994Z,96210.41
2022-11-01T09:41:47.253Z,96217.03
2022-11-01T09:43:53.101Z,96361.31
2022-11-01T09:45:59.288Z,96206.78
2022-11-01T09:48:04.645Z,95999.47
2022-11-01T09:50:17.593Z,96212.50
2022-11-01T09:52:23.328Z,96204.47
2022-11-01T09:54:29.575Z,96211.16
2022-11-01T09:56:39.658Z,96204.84
2022-11-01T09:58:53.574Z,96220.44
2022-11-01T10:01:07.839Z,96219.59
2022-11-01T10:03:33.877Z,96221.34
2022-11-01T10:05:48.836Z,96226.22
2022-11-01T10:08:04.074Z,96220.31
2022-11-01T10:10:29.029Z,96222.00
2022-11-01T10:12:44.110Z,96220.31
2022-11-01T10:14:59.689Z,96225.25
2022-11-01T10:17:13.058Z,96179.31
2022-11-01T10:19:18.726Z,96247.41
2022-11-01T10:21:25.948Z,95977.75
2022-11-01T10:23:44.150Z,95909.97
2022-11-01T10:25:54.773Z,96239.16
2022-11-01T10:28:06.115Z,96250.81
2022-11-01T10:30:15.573Z,96253.16
2022-11-01T10:32:28.131Z,96247.00
2022-11-01T10:34:36.443Z,96258.22
2022-11-01T10:36:44.890Z,96255.44
2022-11-01T10:39:29.907Z,96260.56
2022-11-01T10:41:32.057Z,96253.78
2022-11-01T10:43:38.557Z,96258.59
2022-11-01T10:45:47.468Z,96243.41
2022-11-01T10:47:54.082Z,96260.44
2022-11-01T10:50:08.270Z,96251.50
2022-11-01T10:52:15.534Z,94971.78
2022-11-01T10:54:22.191Z,96261.47
2022-11-01T10:56:33.251Z,96157.84
2022-11-01T10:58:41.547Z,95927.31
2022-11-01T11:00:45.368Z,96257.22
2022-11-01T11:02:50.846Z,96252.34
2022-11-01T11:04:53.711Z,96104.84
2022-11-01T11:06:56.902Z,96258.41
2022-11-01T11:09:00.468Z,95755.88
2022-11-01T11:11:08.497Z,96263.41
2022-11-01T11:13:15.972Z,96274.59
2022-11-01T11:15:22.977Z,96269.69
2022-11-01T11:17:30.815Z,96269.69
2022-11-01T11:19:35.838Z,95902.91
2022-11-01T11:21:38.831Z,96241.13
2022-11-01T11:23:44.746Z,96261.34
2022-11-01T11:25:47.517Z,96252.44
2022-11-01T11:27:54.188Z,96130.91
2022-11-01T11:30:00.761Z,96166.38
2022-11-01T11:32:05.298Z,96255.66
2022-11-01T11:34:29.197Z,96257.50
2022-11-01T11:36:35.251Z,96250.59
2022-11-01T11:38:42.580Z,96251.84
2022-11-01T11:40:46.708Z,96089.47
2022-11-01T11:42:50.008Z,96254.28
2022-11-01T11:44:56.731Z,96161.44
2022-11-01T11:47:03.191Z,96260.78
2022-11-01T11:49:07.361Z,96248.47
2022-11-01T11:51:12.091Z,96255.56
2022-11-01T11:53:19.116Z,96249.28
2022-11-01T11:55:31.176Z,96189.06
2022-11-01T11:57:34.358Z,96158.09
2022-11-01T11:59:37.224Z,96200.75
2022-11-01T12:01:40.209Z,96133.03
2022-11-01T12:03:50.675Z,95876.94
2022-11-01T12:06:00.930Z,96249.44
2022-11-01T12:08:04.134Z,96244.22
2022-11-01T12:10:28.514Z,96247.22
2022-11-01T12:12:33.088Z,96246.63
2022-11-01T12:14:39.221Z,96246.25
2022-11-01T12:16:43.348Z,95930.38
2022-11-01T12:18:53.282Z,96247.59
2022-11-01T12:20:55.990Z,96148.47
2022-11-01T12:23:07.030Z,96136.75
2022-11-01T12:25:15.116Z,96244.44
2022-11-01T12:27:21.970Z,95966.94
2022-11-01T12:29:30.517Z,96239.84
2022-11-01T12:31:33.444Z,95957.03
2022-11-01T12:33:41.992Z,96230.22
2022-11-01T12:35:48.673Z,96153.47
2022-11-01T12:38:01.490Z,96238.16
2022-11-01T12:40:14.240Z,96225.56
2022-11-01T12:42:25.290Z,96230.47
2022-11-01T12:44:34.254Z,96223.78
2022-11-01T12:46:44.177Z,96236.13
2022-11-01T12:48:55.126Z,96055.56
2022-11-01T12:51:03.855Z,96146.09
2022-11-01T12:53:12.887Z,96161.38
2022-11-01T12:55:21.557Z,96214.16
2022-11-01T12:57:24.313Z,96237.25
2022-11-01T12:59:33.628Z,96165.28
2022-11-01T13:01:41.341Z,96224.47
2022-11-01T13:03:51.694Z,96235.88
2022-11-01T13:06:00.060Z,96061.31
2022-11-01T13:08:14.824Z,96226.00
2022-11-01T13:10:27.314Z,95902.50
2022-11-01T13:12:38.990Z,95937.28
2022-11-01T13:14:53.568Z,96230.16
2022-11-01T13:17:06.385Z,96234.59
2022-11-01T13:19:17.803Z,96015.03
2022-11-01T13:21:31.665Z,96167.59
2022-11-01T13:23:39.142Z,96120.34
2022-11-01T13:25:45.733Z,96230.47
2022-11-01T13:27:55.680Z,96234.13
2022-11-01T13:30:03.150Z,96165.25
2022-11-01T13:32:13.440Z,96230.47
2022-11-01T13:34:41.194Z,96230.13
2022-11-01T13:36:51.409Z,96230.84
2022-11-01T13:39:03.156Z,96143.28
2022-11-01T13:41:19.478Z,96139.22
2022-11-01T13:43:25.696Z,96201.47
2022-11-01T13:45:51.352Z,96252.66
2022-11-01T13:48:04.948Z,96215.03
2022-11-01T13:50:33.323Z,96213.34
2022-11-01T13:52:42.103Z,96215.75
2022-11-01T13:54:52.709Z,96178.94
2022-11-01T13:56:59.807Z,96222.63
2022-11-01T13:59:03.301Z,96214.88
2022-11-01T14:01:35.361Z,96228.50
2022-11-01T14:03:38.407Z,96221.28
2022-11-01T14:05:41.439Z,96123.75
2022-11-01T14:08:15.902Z,96226.50
2022-11-01T14:10:48.539Z,96212.41
2022-11-01T14:13:15.750Z,96222.41
2022-11-01T14:15:24.931Z,96245.88
2022-11-01T14:17:56.122Z,96099.06
2022-11-01T14:20:32.181Z,96228.78
2022-11-01T14:22:36.002Z,96227.38
2022-11-01T14:24:54.234Z,96234.31
2022-11-01T14:27:35.078Z,96217.19
2022-11-01T14:29:37.985Z,96227.50
2022-11-01T14:31:43.872Z,96044.00
2022-11-01T14:33:48.504Z,95920.59
2022-11-01T14:35:55.067Z,96245.19
2022-11-01T14:38:02.877Z,96244.56
2022-11-01T14:40:24.461Z,96189.47
2022-11-01T14:42:36.203Z,96283.25
2022-11-01T14:44:44.472Z,96069.44
2022-11-01T14:46:53.722Z,96190.97
2022-11-01T14:49:01.419Z,96238.75
2022-11-01T14:51:11.612Z,96156.00
2022-11-01T14:53:23.562Z,96258.56
2022-11-01T14:55:32.198Z,96257.81
2022-11-01T14:57:36.446Z,96255.16
2022-11-01T14:59:39.111Z,96251.16
2022-11-01T15:01:45.684Z,96036.25
2022-11-01T15:03:55.750Z,96253.81
2022-11-01T15:05:58.428Z,96249.13
2022-11-01T15:08:01.339Z,96250.31
2022-11-01T15:10:07.082Z,96193.72
2022-11-01T15:12:11.380Z,96053.63
2022-11-01T15:14:24.547Z,95999.56
2022-11-01T15:16:28.782Z,96092.16
2022-11-01T15:18:32.616Z,96135.75
2022-11-01T15:20:39.815Z,96219.09
2022-11-01T15:22:43.523Z,96329.59
2022-11-01T15:24:47.772Z,96261.41
2022-11-01T15:26:51.107Z,96211.06
2022-11-01T15:28:56.915Z,96262.84
2022-11-01T15:31:06.209Z,96170.66
2022-11-01T15:33:16.587Z,96270.09
2022-11-01T15:35:24.238Z,96266.38
2022-11-01T15:37:30.591Z,96271.13
2022-11-01T15:39:38.049Z,96266.84
2022-11-01T15:41:40.769Z,96138.19
2022-11-01T15:43:51.798Z,96058.19
2022-11-01T15:45:56.980Z,96178.78
2022-11-01T15:48:07.747Z,96272.38
2022-11-01T15:50:11.434Z,96138.84
2022-11-01T15:52:18.990Z,96270.41
2022-11-01T15:54:32.833Z,96276.28
2022-11-01T15:56:43.616Z,96282.16
2022-11-01T15:58:52.449Z,96275.13
2022-11-01T16:01:00.342Z,96280.00
2022-11-01T16:03:07.857Z,96242.59
2022-11-01T16:05:13.171Z,96145.22
2022-11-01T16:07:19.753Z,96244.31
2022-11-01T16:09:37.337Z,96148.41
2022-11-01T16:11:40.884Z,96077.16
2022-11-01T16:13:49.244Z,96300.38
2022-11-01T16:16:03.080Z,96295.94
2022-11-01T16:18:18.183Z,96330.34
2022-11-01T16:20:38.694Z,96199.16
2022-11-01T16:22:47.838Z,96300.63
2022-11-01T16:24:50.616Z,96253.78
2022-11-01T16:26:54.723Z,96322.56
2022-11-01T16:28:57.405Z,96436.59
2022-11-01T16:31:01.470Z,96177.50
2022-11-01T16:33:28.806Z,96324.19
2022-11-01T16:35:34.115Z,96229.72
2022-11-01T16:37:39.316Z,96298.47
2022-11-01T16:39:41.986Z,96324.72
2022-11-01T16:41:44.707Z,96358.84
2022-11-01T16:43:48.373Z,96324.75
2022-11-01T16:45:51.176Z,96322.56
2022-11-01T16:47:58.329Z,96237.00
2022-11-01T16:50:02.775Z,96331.78
2022-11-01T16:52:12.382Z,96188.84
2022-11-01T16:54:15.286Z,96336.59
2022-11-01T16:56:37.322Z,96357.84
2022-11-01T16:58:40.656Z,96251.38
2022-11-01T17:00:46.510Z,96357.91
2022-11-01T17:02:49.619Z,96202.63
2022-11-01T17:04:55.878Z,96359.19
2022-11-01T17:06:59.914Z,96298.56
2022-11-01T17:09:02.582Z,96345.75
2022-11-01T17:11:05.278Z,96366.63
2022-11-01T17:13:09.121Z,96365.81
2022-11-01T17:15:13.327Z,96301.78
2022-11-01T17:17:19.697Z,96363.38
2022-11-01T17:19:27.228Z,96389.56
2022-11-01T17:21:33.394Z,96370.09
2022-11-01T17:23:38.186Z,96379.28
2022-11-01T17:25:41.449Z,96182.00
2022-11-01T17:27:45.789Z,96320.06
2022-11-01T17:29:48.748Z,96381.84
2022-11-01T17:31:51.397Z,96383.47
2022-11-01T17:33:54.044Z,96390.44
2022-11-01T17:35:56.928Z,96390.09
2022-11-01T17:37:59.737Z,96383.31
2022-11-01T17:40:05.121Z,96386.00
2022-11-01T17:42:07.937Z,95894.22
2022-11-01T17:44:11.412Z,96379.53
2022-11-01T17:46:16.305Z,96384.19
2022-11-01T17:48:19.775Z,96398.22
2022-11-01T17:50:22.617Z,96388.13
2022-11-01T17:52:25.310Z,96384.66
2022-11-01T17:54:27.984Z,96395.13
2022-11-01T17:56:32.444Z,96388.38
2022-11-01T17:58:35.593Z,96387.19
2022-11-01T18:00:41.612Z,96025.81
2022-11-01T18:02:44.558Z,96388.16
2022-11-01T18:04:47.313Z,96391.78
2022-11-01T18:06:50.457Z,96400.13
2022-11-01T18:08:53.983Z,96251.66
2022-11-01T18:11:04.374Z,96402.81
2022-11-01T18:13:42.230Z,96404.28
2022-11-01T18:15:53.391Z,96247.66
2022-11-01T18:18:17.522Z,96148.72
2022-11-01T18:20:33.790Z,96399.19
2022-11-01T18:22:45.130Z,96398.09
2022-11-01T18:24:51.282Z,96248.19
2022-11-01T18:26:54.169Z,96411.44
2022-11-01T18:29:07.217Z,96399.28
2022-11-01T18:31:16.297Z,96187.28
2022-11-01T18:33:22.978Z,96404.22
2022-11-01T18:35:32.386Z,96403.41
2022-11-01T18:37:43.390Z,96408.25
2022-11-01T18:39:52.390Z,95992.78
2022-11-01T18:41:55.479Z,96414.28
2022-11-01T18:44:00.581Z,96409.19
2022-11-01T18:46:23.880Z,95832.22
2022-11-01T18:48:28.513Z,96305.59
2022-11-01T18:50:31.512Z,96280.72
2022-11-01T18:52:34.489Z,96412.78
2022-11-01T18:54:44.070Z,96415.41
2022-11-01T18:56:50.665Z,96403.19
2022-11-01T18:58:54.942Z,96400.53
2022-11-01T19:01:02.835Z,96190.69
2022-11-01T19:03:11.851Z,96403.59
2022-11-01T19:05:18.260Z,96403.16
2022-11-01T19:07:22.888Z,96403.97
2022-11-01T19:09:28.610Z,96409.94
2022-11-01T19:11:32.724Z,96400.41
2022-11-01T19:13:35.845Z,96407.06
2022-11-01T19:15:38.634Z,96032.16
2022-11-01T19:17:44.949Z,96404.25
2022-11-01T19:19:48.242Z,96402.25
2022-11-01T19:21:50.997Z,96402.41
2022-11-01T19:23:56.267Z,96279.84
2022-11-01T19:25:59.211Z,95839.09
2022-11-01T19:28:04.937Z,96339.34
2022-11-01T19:30:21.733Z,96403.41
2022-11-01T19:32:26.084Z,96415.25
2022-11-01T19:34:34.842Z,96145.31
2022-11-01T19:38:45.124Z,96388.56
2022-11-01T19:40:51.438Z,96292.69
2022-11-01T19:42:54.808Z,96390.31
2022-11-01T19:45:00.770Z,96374.34
2022-11-01T19:47:27.002Z,96280.53
2022-11-01T19:49:31.133Z,96305.31
2022-11-01T19:51:33.917Z,96346.63
2022-11-01T19:53:40.069Z,95975.72
2022-11-01T19:55:47.841Z,96409.94
2022-11-01T19:57:51.253Z,96405.00
2022-11-01T19:59:54.642Z,96338.38
2022-11-01T20:01:57.748Z,96410.13
2022-11-01T20:04:02.435Z,96418.63
2022-11-01T20:06:12.334Z,96415.81
2022-11-01T20:08:21.332Z,96090.25
2022-11-01T20:10:24.820Z,96417.63
2022-11-01T20:12:27.550Z,96412.81
2022-11-01T20:14:30.391Z,96350.09
2022-11-01T20:16:33.196Z,96415.72
2022-11-01T20:18:35.995Z,96385.63
2022-11-01T20:20:43.891Z,96288.00
2022-11-01T20:22:54.838Z,96449.44
2022-11-01T20:25:09.746Z,96156.06
2022-11-01T20:27:12.440Z,96241.56
2022-11-01T20:29:15.473Z,96428.38
2022-11-01T20:31:18.721Z,96413.53
2022-11-01T20:33:21.455Z,96419.41
2022-11-01T20:35:24.169Z,96417.44
2022-11-01T20:37:28.758Z,96422.81
2022-11-01T20:39:33.109Z,96421.03
2022-11-01T20:41:35.750Z,96295.31
2022-11-01T20:43:38.429Z,96422.00
2022-11-01T20:45:49.278Z,96421.69
2022-11-01T20:47:55.281Z,96422.25
2022-11-01T20:49:58.025Z,96423.25
2022-11-01T20:52:26.010Z,96232.97
2022-11-01T20:54:23.711Z,95344.91
2022-11-01T20:56:27.983Z,96425.19
2022-11-01T20:58:30.824Z,96449.91
2022-11-01T21:00:33.600Z,95974.88
2022-11-01T21:02:36.452Z,96431.63
2022-11-01T21:04:39.869Z,96441.91
2022-11-01T21:06:43.565Z,96434.56
2022-11-01T21:08:47.997Z,96443.84
2022-11-01T21:10:56.476Z,96166.91
2022-11-01T21:13:02.243Z,96448.31
2022-11-01T21:15:30.207Z,96445.88
2022-11-01T21:17:33.343Z,96304.13
2022-11-01T21:19:36.176Z,96450.00
2022-11-01T21:21:46.235Z,96452.19
2022-11-01T21:23:49.610Z,96386.03
2022-11-01T21:25:54.386Z,96452.28
2022-11-01T21:27:57.137Z,96267.34
2022-11-01T21:30:15.878Z,96383.06
2022-11-01T21:32:26.945Z,96159.94
2022-11-01T21:34:31.746Z,96364.59
2022-11-01T21:36:36.158Z,96237.06
2022-11-01T21:38:42.062Z,96465.03
2022-11-01T21:40:44.869Z,96166.75
2022-11-01T21:42:47.570Z,96260.00
2022-11-01T21:44:50.565Z,96358.03
2022-11-01T21:46:56.403Z,96548.50
2022-11-01T21:49:00.352Z,96463.19
2022-11-01T21:51:03.076Z,96323.19
2022-11-01T21:53:06.116Z,96464.00
2022-11-01T21:55:09.408Z,96470.41
2022-11-01T21:57:13.019Z,96454.88
2022-11-01T21:59:15.720Z,96256.66
2022-11-01T22:01:18.449Z,96474.75
2022-11-01T22:03:22.807Z,96474.97
2022-11-01T22:05:25.552Z,96458.84
2022-11-01T22:07:28.272Z,96470.06
2022-11-01T22:09:31.780Z,96160.34
2022-11-01T22:11:34.625Z,96472.41
2022-11-01T22:13:37.369Z,96460.94
2022-11-01T22:15:40.059Z,96469.72
2022-11-01T22:17:42.764Z,96457.34
2022-11-01T22:19:46.806Z,96464.13
2022-11-01T22:21:49.596Z,96475.69
2022-11-01T22:23:52.495Z,96464.13
2022-11-01T22:25:56.148Z,96244.78
2022-11-01T22:27:58.839Z,96469.38
2022-11-01T22:30:01.509Z,96472.28
2022-11-01T22:32:04.471Z,96473.94
2022-11-01T22:34:07.180Z,96560.91
2022-11-01T22:36:19.119Z,96471.81
2022-11-01T22:38:24.128Z,95241.47
2022-11-01T22:40:26.939Z,96337.19
2022-11-01T22:42:29.589Z,96470.66
2022-11-01T22:44:33.321Z,96472.84
2022-11-01T22:46:44.614Z,96679.69
2022-11-01T22:48:48.273Z,96464.13
2022-11-01T22:50:51.214Z,96482.78
2022-11-01T22:52:55.240Z,96230.88
2022-11-01T22:55:04.651Z,96229.91
2022-11-01T22:57:15.811Z,96485.00
2022-11-01T22:59:18.627Z,96480.94
2022-11-01T23:01:27.701Z,96489.81
2022-11-01T23:03:37.721Z,96483.16
2022-11-01T23:05:42.278Z,96477.19
2022-11-01T23:07:47.324Z,96479.78
2022-11-01T23:09:53.732Z,96477.56
2022-11-01T23:12:15.511Z,96482.91
2022-11-01T23:14:37.933Z,96480.34
2022-11-01T23:16:44.994Z,96482.34
2022-11-01T23:18:48.201Z,96482.69
2022-11-01T23:20:56.156Z,96483.75
2022-11-01T23:23:00.647Z,96485.13
2022-11-01T23:25:05.873Z,96270.00
2022-11-01T23:27:08.698Z,96489.22
2022-11-01T23:29:11.504Z,96296.84
2022-11-01T23:31:14.650Z,96496.59
2022-11-01T23:33:19.543Z,96489.09
2022-11-01T23:35:23.084Z,96491.22
2022-11-01T23:37:26.898Z,96496.13
2022-11-01T23:39:34.429Z,96418.97
2022-11-01T23:41:40.789Z,95641.03
2022-11-01T23:43:43.429Z,96500.06
2022-11-01T23:45:46.288Z,96231.56
2022-11-01T23:47:49.825Z,96508.59
2022-11-01T23:50:01.062Z,96303.38
2022-11-01T23:52:20.384Z,96384.66
2022-11-01T23:54:27.708Z,96502.06
2022-11-01T23:56:31.603Z,96496.13
2022-11-01T23:58:37.138Z,96504.88
